createdAt,value
2019-01-03T00:04:55.011Z,1.32
2019-01-03T00:10:15.293Z,1.27
2019-01-03T00:15:43.243Z,1.32
2019-01-03T00:21:04.005Z,1.25
2019-01-03T00:26:33.586Z,1.26
2019-01-03T00:31:55.235Z,1.28
2019-01-03T00:37:24.753Z,1.27
2019-01-03T00:42:46.404Z,0.93
2019-01-03T00:48:06.915Z,0.99
2019-01-03T00:53:27.205Z,0.86
2019-01-03T00:58:57.878Z,0.90
2019-01-03T01:04:18.248Z,0.96
2019-01-03T01:09:38.601Z,0.90
2019-01-03T01:14:58.823Z,0.80
2019-01-03T01:20:14.081Z,0.94
2019-01-03T01:25:28.686Z,1.07
2019-01-03T01:30:49.093Z,1.13
2019-01-03T01:36:10.698Z,1.26
2019-01-03T01:41:32.371Z,1.40
2019-01-03T01:46:54.623Z,1.39
2019-01-03T01:52:26.383Z,1.41
2019-01-03T01:57:54.042Z,1.42
2019-01-03T02:03:15.712Z,1.41
2019-01-03T02:08:37.281Z,1.38
2019-01-03T02:13:57.963Z,1.41
2019-01-03T02:19:28.504Z,1.40
2019-01-03T02:24:46.572Z,1.38
2019-01-03T02:30:17.428Z,1.42
2019-01-03T02:35:35.279Z,1.47
2019-01-03T02:40:55.747Z,1.49
2019-01-03T02:46:17.350Z,1.23
2019-01-03T02:51:41.714Z,1.17
2019-01-03T02:57:02.104Z,1.18
2019-01-03T03:02:23.322Z,1.07
2019-01-03T03:07:47.776Z,0.99
2019-01-03T03:13:27.499Z,0.89
2019-01-03T03:18:49.131Z,0.91
2019-01-03T03:24:26.123Z,0.93
2019-01-03T03:29:51.133Z,0.93
2019-01-03T03:35:17.965Z,0.95
2019-01-03T03:40:38.446Z,0.97
2019-01-03T03:45:59.071Z,1.01
2019-01-03T03:51:26.251Z,1.08
2019-01-03T03:57:05.836Z,0.98
2019-01-03T04:02:30.120Z,1.12
2019-01-03T04:08:03.740Z,1.15
2019-01-03T04:13:21.398Z,1.14
2019-01-03T04:18:41.844Z,1.19
2019-01-03T04:24:09.274Z,1.06
2019-01-03T04:29:30.841Z,1.16
2019-01-03T04:34:58.311Z,1.05
2019-01-03T04:40:18.546Z,1.11
2019-01-03T04:45:41.320Z,1.10
2019-01-03T04:51:18.146Z,1.12
2019-01-03T04:56:39.746Z,1.13
2019-01-03T05:02:04.905Z,0.88
2019-01-03T05:07:20.980Z,0.97
2019-01-03T05:12:42.608Z,0.91
2019-01-03T05:18:02.831Z,0.88
2019-01-03T05:23:23.198Z,0.79
2019-01-03T05:28:43.714Z,0.78
2019-01-03T05:34:04.581Z,0.75
2019-01-03T05:39:38.509Z,0.75
2019-01-03T05:44:58.948Z,0.90
2019-01-03T05:50:19.522Z,0.79
2019-01-03T05:55:39.978Z,0.73
2019-01-03T06:00:56.978Z,0.57
2019-01-03T06:06:17.442Z,0.46
2019-01-03T06:11:57.496Z,0.58
2019-01-03T06:17:24.749Z,0.35
2019-01-03T06:23:01.470Z,0.46
2019-01-03T06:28:25.775Z,0.43
2019-01-03T06:33:46.305Z,0.35
2019-01-03T06:39:06.676Z,0.49
2019-01-03T06:44:26.848Z,0.51
2019-01-03T06:49:47.193Z,0.50
2019-01-03T06:55:06.711Z,0.53
2019-01-03T07:00:34.394Z,0.58
2019-01-03T07:05:54.730Z,0.68
2019-01-03T07:11:14.939Z,0.62
2019-01-03T07:16:35.288Z,0.69
2019-01-03T07:21:59.945Z,0.68
2019-01-03T07:27:20.228Z,0.81
2019-01-03T07:32:41.835Z,0.77
2019-01-03T07:38:03.437Z,0.85
2019-01-03T07:43:23.767Z,0.94
2019-01-03T07:48:46.110Z,0.94
2019-01-03T07:54:19.794Z,0.92
2019-01-03T07:59:40.095Z,0.91
2019-01-03T08:04:52.895Z,0.88
2019-01-03T08:10:14.475Z,0.87
2019-01-03T08:15:34.980Z,0.96
2019-01-03T08:20:55.274Z,0.92
2019-01-03T08:26:25.305Z,0.81
2019-01-03T08:31:44.170Z,0.81
2019-01-03T08:37:04.817Z,0.69
2019-01-03T08:42:25.181Z,0.73
2019-01-03T08:47:52.846Z,1.09
2019-01-03T08:53:20.857Z,1.27
2019-01-03T08:58:54.635Z,1.56
2019-01-03T09:04:28.371Z,1.60
2019-01-03T09:10:08.672Z,1.74
2019-01-03T09:15:36.578Z,1.86
2019-01-03T09:20:57.094Z,1.93
2019-01-03T09:26:24.057Z,2.03
2019-01-03T09:31:44.269Z,2.06
2019-01-03T09:37:08.705Z,2.12
2019-01-03T09:42:42.562Z,1.96
2019-01-03T09:47:44.548Z,1.87
2019-01-03T09:52:47.663Z,2.14
2019-01-03T09:57:49.690Z,2.01
2019-01-03T10:02:51.979Z,2.00
2019-01-03T10:07:54.024Z,1.97
2019-01-03T10:12:56.049Z,2.07
2019-01-03T10:17:58.065Z,2.12
2019-01-03T10:23:00.450Z,2.15
2019-01-03T10:28:02.456Z,2.27
2019-01-03T10:33:04.464Z,2.17
2019-01-03T10:38:06.427Z,2.32
2019-01-03T10:43:08.488Z,2.37
2019-01-03T10:48:10.784Z,2.62
2019-01-03T10:53:12.848Z,2.75
2019-01-03T10:58:14.829Z,2.83
2019-01-03T11:03:18.141Z,2.82
2019-01-03T11:08:20.159Z,2.99
2019-01-03T11:13:22.213Z,2.92
2019-01-03T11:18:24.217Z,2.99
2019-01-03T11:23:26.284Z,3.03
2019-01-03T11:28:28.310Z,3.05
2019-01-03T11:33:30.356Z,2.93
2019-01-03T11:38:32.395Z,2.84
2019-01-03T11:43:34.480Z,2.81
2019-01-03T11:48:36.761Z,2.94
2019-01-03T11:53:38.759Z,3.04
2019-01-03T11:58:41.048Z,3.02
2019-01-03T12:03:43.060Z,3.01
2019-01-03T12:08:45.117Z,3.13
2019-01-03T12:13:47.170Z,3.25
2019-01-03T12:18:49.186Z,3.19
2019-01-03T12:23:51.499Z,3.21
2019-01-03T12:28:53.528Z,3.29
2019-01-03T12:33:55.533Z,3.37
2019-01-03T12:38:57.524Z,3.32
2019-01-03T12:43:59.561Z,3.36
2019-01-03T12:49:01.583Z,3.32
2019-01-03T12:54:03.605Z,3.52
2019-01-03T12:59:05.616Z,3.55
2019-01-03T13:04:07.585Z,3.56
2019-01-03T13:09:18.925Z,3.50
2019-01-03T13:14:20.921Z,3.62
2019-01-03T13:19:23.003Z,3.66
2019-01-03T13:24:25.012Z,3.64
2019-01-03T13:29:27.048Z,3.59
2019-01-03T13:34:29.301Z,3.51
2019-01-03T13:39:31.318Z,3.51
2019-01-03T13:44:33.275Z,3.56
2019-01-03T13:49:35.323Z,3.59
2019-01-03T13:54:37.364Z,3.58
2019-01-03T13:59:41.387Z,3.61
2019-01-03T14:04:43.372Z,3.59
2019-01-03T14:09:45.390Z,3.62
2019-01-03T14:14:47.398Z,3.66
2019-01-03T14:19:49.425Z,3.72
2019-01-03T14:24:51.388Z,3.70
2019-01-03T14:29:53.817Z,3.68
2019-01-03T14:34:56.209Z,3.63
2019-01-03T14:39:58.198Z,3.61
2019-01-03T14:45:00.329Z,3.59
2019-01-03T14:50:03.045Z,3.56
2019-01-03T14:55:05.322Z,3.57
2019-01-03T15:00:10.615Z,3.62
2019-01-03T15:05:14.049Z,3.66
2019-01-03T15:10:16.150Z,3.69
2019-01-03T15:15:18.268Z,3.66
2019-01-03T15:20:20.274Z,3.70
2019-01-03T15:25:22.242Z,3.61
2019-01-03T15:30:24.270Z,3.61
2019-01-03T15:35:26.254Z,3.58
2019-01-03T15:40:51.105Z,3.43
2019-01-03T15:45:54.200Z,3.28
2019-01-03T15:50:56.212Z,3.08
2019-01-03T15:55:58.267Z,3.08
2019-01-03T16:01:00.333Z,3.20
2019-01-03T16:06:02.351Z,3.26
2019-01-03T16:11:04.344Z,3.28
2019-01-03T16:16:06.411Z,3.25
2019-01-03T16:21:08.807Z,3.16
2019-01-03T16:26:10.783Z,2.87
2019-01-03T16:31:12.798Z,2.72
2019-01-03T16:36:14.806Z,2.78
2019-01-03T16:41:17.113Z,2.77
2019-01-03T16:46:19.108Z,2.62
2019-01-03T16:51:21.087Z,2.39
2019-01-03T16:56:23.094Z,2.38
2019-01-03T17:01:25.162Z,2.23
2019-01-03T17:06:27.394Z,2.27
2019-01-03T17:11:29.396Z,2.22
2019-01-03T17:16:31.455Z,2.28
2019-01-03T17:21:33.673Z,2.33
2019-01-03T17:26:35.722Z,2.32
2019-01-03T17:31:38.068Z,2.19
2019-01-03T17:36:40.111Z,2.19
2019-01-03T17:41:42.166Z,2.23
2019-01-03T17:46:44.276Z,2.31
2019-01-03T17:51:46.320Z,2.33
2019-01-03T17:56:48.723Z,2.36
2019-01-03T18:01:50.708Z,2.37
2019-01-03T18:06:52.687Z,2.43
2019-01-03T18:11:54.727Z,2.51
2019-01-03T18:16:56.763Z,2.51
2019-01-03T18:21:58.837Z,2.56
2019-01-03T18:27:00.847Z,2.57
2019-01-03T18:32:02.876Z,2.59
2019-01-03T18:37:05.011Z,2.56
2019-01-03T18:42:07.442Z,2.50
2019-01-03T18:47:09.824Z,2.32
2019-01-03T18:52:11.796Z,2.24
2019-01-03T18:57:14.083Z,2.17
2019-01-03T19:02:16.088Z,2.17
2019-01-03T19:07:18.147Z,2.01
2019-01-03T19:12:20.517Z,2.15
2019-01-03T19:17:22.543Z,2.18
2019-01-03T19:22:24.516Z,2.16
2019-01-03T19:27:26.491Z,2.12
2019-01-03T19:32:28.512Z,1.96
2019-01-03T19:37:30.542Z,1.74
2019-01-03T19:42:33.631Z,1.69
2019-01-03T19:47:35.612Z,1.57
2019-01-03T19:52:37.665Z,1.41
2019-01-03T19:57:39.800Z,1.41
2019-01-03T20:02:41.803Z,1.36
2019-01-03T20:07:44.689Z,1.40
2019-01-03T20:12:46.723Z,1.36
2019-01-03T20:17:49.644Z,1.26
2019-01-03T20:22:51.667Z,1.19
2019-01-03T20:27:53.728Z,1.22
2019-01-03T20:32:56.599Z,1.23
2019-01-03T20:37:58.648Z,1.22
2019-01-03T20:43:01.107Z,1.17
2019-01-03T20:48:04.480Z,1.10
2019-01-03T20:53:06.457Z,1.12
2019-01-03T20:58:09.274Z,1.12
2019-01-03T21:03:11.307Z,1.12
2019-01-03T21:08:13.346Z,1.04
2019-01-03T21:13:15.375Z,1.02
2019-01-03T21:18:17.405Z,0.98
2019-01-03T21:23:19.401Z,0.98
2019-01-03T21:28:24.923Z,0.96
2019-01-03T21:33:26.994Z,0.96
2019-01-03T21:38:29.100Z,0.91
2019-01-03T21:43:31.088Z,0.86
2019-01-03T21:48:33.251Z,0.78
2019-01-03T21:53:35.277Z,0.75
2019-01-03T21:58:37.296Z,0.81
2019-01-03T22:03:39.640Z,0.79
2019-01-03T22:08:41.683Z,0.66
2019-01-03T22:13:44.053Z,0.72
2019-01-03T22:18:46.112Z,0.70
2019-01-03T22:23:48.451Z,0.74
2019-01-03T22:28:50.445Z,0.55
2019-01-03T22:33:52.434Z,0.42
2019-01-03T22:38:54.784Z,0.43
2019-01-03T22:43:57.096Z,0.37
2019-01-03T22:48:59.112Z,0.50
2019-01-03T22:54:01.116Z,0.31
2019-01-03T22:59:03.137Z,0.28
2019-01-03T23:04:05.171Z,-0.04
2019-01-03T23:09:07.157Z,-0.08
2019-01-03T23:14:09.171Z,-0.21
2019-01-03T23:19:11.207Z,-0.24
2019-01-03T23:24:13.188Z,-0.18
2019-01-03T23:29:15.138Z,-0.21
2019-01-03T23:34:17.177Z,-0.27
2019-01-03T23:39:19.171Z,-0.26
2019-01-03T23:44:21.462Z,-0.32
2019-01-03T23:49:23.471Z,-0.39
2019-01-03T23:54:25.483Z,-0.45
2019-01-03T23:59:27.565Z,-0.41
